createdAt,value
2018-08-30T00:02:27.298Z,98068.09
2018-08-30T00:04:56.421Z,98070.17
2018-08-30T00:07:25.552Z,98070.71
2018-08-30T00:09:54.661Z,98064.75
2018-08-30T00:12:23.786Z,98071.98
2018-08-30T00:14:52.887Z,98065.25
2018-08-30T00:17:22.010Z,98074.78
2018-08-30T00:19:51.941Z,98077.28
2018-08-30T00:22:21.065Z,98084.36
2018-08-30T00:24:50.182Z,98083.33
2018-08-30T00:27:19.294Z,98088.01
2018-08-30T00:29:48.454Z,98083.86
2018-08-30T00:32:17.618Z,98082.80
2018-08-30T00:34:46.733Z,98088.73
2018-08-30T00:37:15.853Z,98098.16
2018-08-30T00:39:44.955Z,98098.61
2018-08-30T00:42:15.174Z,98107.56
2018-08-30T00:44:44.351Z,98103.87
2018-08-30T00:47:19.246Z,98111.61
2018-08-30T00:49:48.438Z,98115.77
2018-08-30T00:52:17.705Z,98109.08
2018-08-30T00:54:46.950Z,98118.58
2018-08-30T00:57:17.346Z,98118.83
2018-08-30T00:59:46.506Z,98118.87
2018-08-30T01:02:15.630Z,98128.70
2018-08-30T01:04:44.874Z,98131.33
2018-08-30T01:07:14.004Z,98137.56
2018-08-30T01:09:43.078Z,98136.23
2018-08-30T01:12:12.486Z,98137.26
2018-08-30T01:14:41.765Z,98148.95
2018-08-30T01:17:11.245Z,98144.56
2018-08-30T01:19:40.383Z,98142.50
2018-08-30T01:22:09.514Z,98145.30
2018-08-30T01:24:38.665Z,98149.68
2018-08-30T01:27:07.814Z,98149.39
2018-08-30T01:29:37.636Z,98155.35
2018-08-30T01:32:07.395Z,98150.68
2018-08-30T01:34:36.557Z,98157.93
2018-08-30T01:37:05.882Z,98159.70
2018-08-30T01:39:35.086Z,98160.39
2018-08-30T01:42:04.811Z,98164.81
2018-08-30T01:44:33.929Z,98168.95
2018-08-30T01:47:03.549Z,98168.12
2018-08-30T01:49:32.666Z,98168.95
2018-08-30T01:52:01.866Z,98178.23
2018-08-30T01:54:30.997Z,98179.05
2018-08-30T01:57:00.419Z,98183.44
2018-08-30T01:59:29.490Z,98184.69
2018-08-30T02:01:58.596Z,98192.98
2018-08-30T02:04:28.426Z,98191.95
2018-08-30T02:06:57.638Z,98201.74
2018-08-30T02:09:26.749Z,98194.00
2018-08-30T02:11:55.830Z,98199.12
2018-08-30T02:14:24.920Z,98201.62
2018-08-30T02:16:54.018Z,98204.75
2018-08-30T02:19:23.452Z,98203.42
2018-08-30T02:21:52.521Z,98212.63
2018-08-30T02:24:22.271Z,98219.74
2018-08-30T02:26:51.778Z,98216.81
2018-08-30T02:29:20.863Z,98222.31
2018-08-30T02:31:49.990Z,98224.75
2018-08-30T02:34:19.146Z,98232.39
2018-08-30T02:36:48.315Z,98228.12
2018-08-30T02:39:18.334Z,98233.37
2018-08-30T02:41:47.793Z,98232.81
2018-08-30T02:44:16.997Z,98230.91
2018-08-30T02:46:46.148Z,98221.48
2018-08-30T02:49:15.266Z,98217.83
2018-08-30T02:51:44.385Z,98224.52
2018-08-30T02:54:13.778Z,98217.70
2018-08-30T02:56:43.090Z,98219.45
2018-08-30T02:59:12.617Z,98218.11
2018-08-30T03:01:41.705Z,98223.72
2018-08-30T03:04:10.834Z,98229.86
2018-08-30T03:06:39.945Z,98227.48
2018-08-30T03:09:10.097Z,98225.41
2018-08-30T03:11:39.224Z,98226.81
2018-08-30T03:14:08.618Z,98225.25
2018-08-30T03:16:37.710Z,98230.11
2018-08-30T03:19:06.826Z,98229.06
2018-08-30T03:21:36.101Z,98235.31
2018-08-30T03:24:05.254Z,98231.69
2018-08-30T03:26:34.425Z,98237.78
2018-08-30T03:29:03.538Z,98237.73
2018-08-30T03:31:32.648Z,98235.15
2018-08-30T03:34:01.736Z,98237.46
2018-08-30T03:36:30.830Z,98233.14
2018-08-30T03:39:00.441Z,98233.59
2018-08-30T03:41:30.305Z,98234.96
2018-08-30T03:43:59.477Z,98242.88
2018-08-30T03:46:28.843Z,98241.33
2018-08-30T03:48:58.115Z,98242.98
2018-08-30T03:51:27.349Z,98244.16
2018-08-30T03:53:56.618Z,98245.20
2018-08-30T03:56:25.930Z,98246.02
2018-08-30T03:58:55.363Z,98242.42
2018-08-30T04:01:24.485Z,98257.61
2018-08-30T04:03:53.565Z,98255.91
2018-08-30T04:06:22.694Z,98253.73
2018-08-30T04:08:52.206Z,98246.39
2018-08-30T04:11:21.325Z,98254.68
2018-08-30T04:13:50.437Z,98256.69
2018-08-30T04:16:19.541Z,98259.53
2018-08-30T04:18:52.757Z,98271.77
2018-08-30T04:21:21.890Z,98260.34
2018-08-30T04:23:51.014Z,98258.59
2018-08-30T04:26:20.824Z,98262.41
2018-08-30T04:28:50.010Z,98262.75
2018-08-30T04:31:19.156Z,98259.34
2018-08-30T04:33:48.257Z,98264.67
2018-08-30T04:36:17.382Z,98266.52
2018-08-30T04:38:47.163Z,98268.02
2018-08-30T04:41:17.173Z,98271.16
2018-08-30T04:43:47.038Z,98267.45
2018-08-30T04:46:16.725Z,98268.69
2018-08-30T04:48:46.065Z,98276.20
2018-08-30T04:51:15.401Z,98274.34
2018-08-30T04:53:44.561Z,98277.64
2018-08-30T04:56:13.661Z,98277.38
2018-08-30T04:58:42.762Z,98279.73
2018-08-30T05:01:12.389Z,98280.97
2018-08-30T05:03:41.519Z,98281.38
2018-08-30T05:06:10.587Z,98294.02
2018-08-30T05:08:40.117Z,98296.92
2018-08-30T05:11:09.801Z,98297.19
2018-08-30T05:13:39.410Z,98304.67
2018-08-30T05:16:08.502Z,98309.66
2018-08-30T05:18:37.595Z,98313.41
2018-08-30T05:21:06.721Z,98310.98
2018-08-30T05:23:35.798Z,98320.47
2018-08-30T05:26:05.782Z,98318.20
2018-08-30T05:28:34.896Z,98319.75
2018-08-30T05:31:04.002Z,98322.06
2018-08-30T05:33:33.137Z,98322.75
2018-08-30T05:36:02.911Z,98334.44
2018-08-30T05:38:32.047Z,98330.16
2018-08-30T05:41:02.718Z,98330.30
2018-08-30T05:43:31.849Z,98328.23
2018-08-30T05:46:01.405Z,98320.58
2018-08-30T05:48:30.570Z,98326.28
2018-08-30T05:50:59.718Z,98326.53
2018-08-30T05:53:28.837Z,98328.30
2018-08-30T05:55:57.965Z,98330.13
2018-08-30T05:58:27.142Z,98333.37
2018-08-30T06:00:56.278Z,98334.29
2018-08-30T06:03:25.398Z,98330.79
2018-08-30T06:05:55.379Z,98333.13
2018-08-30T06:08:24.554Z,98341.05
2018-08-30T06:10:53.626Z,98347.04
2018-08-30T06:13:22.783Z,98346.78
2018-08-30T06:15:51.874Z,98349.84
2018-08-30T06:18:21.717Z,98347.63
2018-08-30T06:20:50.893Z,98354.66
2018-08-30T06:23:20.028Z,98359.30
2018-08-30T06:25:49.141Z,98362.65
2018-08-30T06:28:18.314Z,98361.87
2018-08-30T06:30:47.414Z,98369.59
2018-08-30T06:33:16.505Z,98366.03
2018-08-30T06:35:45.643Z,98367.26
2018-08-30T06:38:16.265Z,98370.61
2018-08-30T06:40:45.410Z,98367.36
2018-08-30T06:43:15.255Z,98369.87
2018-08-30T06:45:48.027Z,98366.89
2018-08-30T06:48:17.488Z,98372.00
2018-08-30T06:50:46.875Z,98375.50
2018-08-30T06:53:16.288Z,98381.39
2018-08-30T06:55:45.410Z,98381.23
2018-08-30T06:58:14.535Z,98381.85
2018-08-30T07:00:43.650Z,98384.63
2018-08-30T07:03:12.739Z,98385.80
2018-08-30T07:05:42.041Z,98392.27
2018-08-30T07:08:11.237Z,98392.44
2018-08-30T07:10:40.463Z,98388.97
2018-08-30T07:13:09.585Z,98394.25
2018-08-30T07:15:38.719Z,98394.97
2018-08-30T07:18:07.841Z,98398.39
2018-08-30T07:20:37.731Z,98401.30
2018-08-30T07:23:06.867Z,98407.05
2018-08-30T07:25:36.112Z,98413.80
2018-08-30T07:28:05.473Z,98421.78
2018-08-30T07:30:34.637Z,98426.72
2018-08-30T07:33:03.747Z,98426.59
2018-08-30T07:35:32.883Z,98428.80
2018-08-30T07:38:02.782Z,98428.45
2018-08-30T07:40:31.877Z,98431.51
2018-08-30T07:43:01.130Z,98435.70
2018-08-30T07:45:31.510Z,98429.37
2018-08-30T07:48:00.678Z,98436.05
2018-08-30T07:50:29.853Z,98435.67
2018-08-30T07:52:59.002Z,98442.81
2018-08-30T07:55:28.461Z,98439.97
2018-08-30T07:57:57.671Z,98445.80
2018-08-30T08:00:26.789Z,98448.41
2018-08-30T08:02:56.094Z,98447.59
2018-08-30T08:05:25.218Z,98448.63
2018-08-30T08:07:54.322Z,98447.59
2018-08-30T08:10:23.485Z,98452.16
2018-08-30T08:12:52.621Z,98455.44
2018-08-30T08:15:21.731Z,98463.58
2018-08-30T08:17:51.487Z,98459.09
2018-08-30T08:20:20.610Z,98457.84
2018-08-30T08:22:49.770Z,98457.16
2018-08-30T08:25:18.966Z,98457.41
2018-08-30T08:27:48.105Z,98458.10
2018-08-30T08:30:17.245Z,98468.98
2018-08-30T08:32:46.386Z,98467.29
2018-08-30T08:35:15.490Z,98473.11
2018-08-30T08:37:44.794Z,98471.79
2018-08-30T08:40:14.109Z,98471.93
2018-08-30T08:42:43.325Z,98470.63
2018-08-30T08:45:12.704Z,98468.81
2018-08-30T08:47:42.635Z,98466.20
2018-08-30T08:50:11.719Z,98469.67
2018-08-30T08:52:40.818Z,98476.70
2018-08-30T08:55:09.929Z,98464.66
2018-08-30T08:57:39.060Z,98470.34
2018-08-30T09:00:08.173Z,98472.82
2018-08-30T09:02:37.317Z,98467.80
2018-08-30T09:05:07.647Z,98470.95
2018-08-30T09:07:36.791Z,98473.30
2018-08-30T09:10:06.896Z,98473.12
2018-08-30T09:12:36.062Z,98485.21
2018-08-30T09:15:05.281Z,98483.37
2018-08-30T09:17:34.573Z,98486.77
2018-08-30T09:20:03.754Z,98482.64
2018-08-30T09:22:32.886Z,98486.27
2018-08-30T09:25:02.823Z,98483.69
2018-08-30T09:27:31.917Z,98479.77
2018-08-30T09:30:01.012Z,98475.16
2018-08-30T09:32:30.149Z,98470.22
2018-08-30T09:34:59.453Z,98468.66
2018-08-30T09:37:28.576Z,98469.34
2018-08-30T09:39:57.714Z,98476.89
2018-08-30T09:42:26.838Z,98468.41
2018-08-30T09:44:56.009Z,98477.64
2018-08-30T09:47:25.638Z,98478.83
2018-08-30T09:49:55.777Z,98476.97
2018-08-30T09:52:24.981Z,98473.80
2018-08-30T09:54:54.141Z,98475.67
2018-08-30T09:57:23.467Z,98472.56
2018-08-30T09:59:52.845Z,98475.12
2018-08-30T10:02:27.485Z,98474.61
2018-08-30T10:04:56.824Z,98468.39
2018-08-30T10:07:25.915Z,98462.69
2018-08-30T10:09:55.009Z,98476.87
2018-08-30T10:12:24.114Z,98472.16
2018-08-30T10:14:53.276Z,98469.13
2018-08-30T10:17:22.417Z,98461.16
2018-08-30T10:19:52.082Z,98466.79
2018-08-30T10:22:21.205Z,98455.19
2018-08-30T10:24:50.362Z,98458.52
2018-08-30T10:27:19.525Z,98457.27
2018-08-30T10:29:48.630Z,98466.63
2018-08-30T10:32:17.806Z,98463.20
2018-08-30T10:34:47.628Z,98467.24
2018-08-30T10:37:16.762Z,98454.39
2018-08-30T10:39:45.906Z,98460.92
2018-08-30T10:42:15.049Z,98461.63
2018-08-30T10:44:44.750Z,98457.12
2018-08-30T10:47:13.917Z,98457.92
2018-08-30T10:49:43.909Z,98463.43
2018-08-30T10:52:12.901Z,98457.48
2018-08-30T10:54:42.096Z,98456.41
2018-08-30T10:57:11.189Z,98451.48
2018-08-30T10:59:40.302Z,98451.44
2018-08-30T11:02:09.693Z,98461.11
2018-08-30T11:04:38.916Z,98464.64
2018-08-30T11:07:08.037Z,98467.95
2018-08-30T11:09:37.140Z,98459.95
2018-08-30T11:12:06.278Z,98461.84
2018-08-30T11:14:35.366Z,98472.34
2018-08-30T11:17:04.493Z,98457.98
2018-08-30T11:19:33.827Z,98456.87
2018-08-30T11:22:02.877Z,98448.84
2018-08-30T11:24:31.988Z,98460.21
2018-08-30T11:27:01.145Z,98460.77
2018-08-30T11:29:30.226Z,98465.15
2018-08-30T11:31:59.361Z,98458.48
2018-08-30T11:34:29.190Z,98453.86
2018-08-30T11:36:58.338Z,98461.09
2018-08-30T11:39:27.441Z,98451.63
2018-08-30T11:41:56.563Z,98449.40
2018-08-30T11:44:25.690Z,98453.73
2018-08-30T11:46:54.861Z,98454.75
2018-08-30T11:49:24.323Z,98447.16
2018-08-30T11:51:53.462Z,98457.00
2018-08-30T11:54:22.795Z,98455.75
2018-08-30T11:56:51.857Z,98456.23
2018-08-30T11:59:22.206Z,98459.78
2018-08-30T12:01:51.340Z,98464.00
2018-08-30T12:04:20.534Z,98466.59
2018-08-30T12:06:49.693Z,98460.67
2018-08-30T12:09:18.796Z,98463.03
2018-08-30T12:11:47.910Z,98466.51
2018-08-30T12:14:17.026Z,98457.51
2018-08-30T12:16:46.276Z,98465.03
2018-08-30T12:19:15.387Z,98456.21
2018-08-30T12:21:44.523Z,98461.63
2018-08-30T12:24:13.648Z,98463.33
2018-08-30T12:26:42.744Z,98455.27
2018-08-30T12:29:11.916Z,98451.70
2018-08-30T12:31:41.072Z,98459.06
2018-08-30T12:34:10.241Z,98457.41
2018-08-30T12:36:39.662Z,98457.32
2018-08-30T12:39:11.295Z,98446.03
2018-08-30T12:41:40.416Z,98449.52
2018-08-30T12:44:09.624Z,98446.78
2018-08-30T12:46:38.748Z,98438.01
2018-08-30T12:49:07.860Z,98439.24
2018-08-30T12:51:37.405Z,98434.62
2018-08-30T12:54:06.603Z,98433.59
2018-08-30T12:56:36.077Z,98435.41
2018-08-30T12:59:10.379Z,98433.59
2018-08-30T13:01:39.603Z,98430.46
2018-08-30T13:04:09.054Z,98439.95
2018-08-30T13:06:42.270Z,98431.23
2018-08-30T13:09:11.713Z,98427.09
2018-08-30T13:11:40.637Z,98428.16
2018-08-30T13:14:09.703Z,98431.47
2018-08-30T13:16:38.748Z,98423.84
2018-08-30T13:19:08.774Z,98431.22
2018-08-30T13:21:38.645Z,98424.51
2018-08-30T13:24:07.764Z,98430.39
2018-08-30T13:26:36.843Z,98425.25
2018-08-30T13:29:06.010Z,98417.48
2018-08-30T13:31:35.122Z,98412.85
2018-08-30T13:34:04.660Z,98419.02
2018-08-30T13:36:34.093Z,98414.44
2018-08-30T13:39:03.158Z,98418.47
2018-08-30T13:41:32.453Z,98419.30
2018-08-30T13:44:01.414Z,98422.13
2018-08-30T13:46:30.464Z,98417.09
2018-08-30T13:49:00.294Z,98421.66
2018-08-30T13:51:30.416Z,98415.41
2018-08-30T13:53:59.533Z,98415.50
2018-08-30T13:56:28.911Z,98412.09
2018-08-30T13:58:58.034Z,98412.47
2018-08-30T14:01:27.574Z,98413.20
2018-08-30T14:03:56.080Z,98408.30
2018-08-30T14:06:25.328Z,98414.51
2018-08-30T14:08:54.517Z,98402.72
2018-08-30T14:11:23.731Z,98408.00
2018-08-30T14:13:52.845Z,98411.13
2018-08-30T14:16:21.698Z,98408.13
2018-08-30T14:18:51.201Z,98402.24
2018-08-30T14:21:20.302Z,98407.91
2018-08-30T14:23:49.410Z,98404.47
2018-08-30T14:26:18.558Z,98403.06
2018-08-30T14:28:47.733Z,98405.87
2018-08-30T14:31:16.850Z,98405.14
2018-08-30T14:33:45.967Z,98400.52
2018-08-30T14:36:15.086Z,98399.24
2018-08-30T14:38:44.296Z,98397.88
2018-08-30T14:41:13.653Z,98404.44
2018-08-30T14:43:42.605Z,98403.45
2018-08-30T14:46:11.689Z,98408.06
2018-08-30T14:48:40.839Z,98407.97
2018-08-30T14:51:10.014Z,98401.73
2018-08-30T14:53:39.318Z,98406.88
2018-08-30T14:56:08.034Z,98408.23
2018-08-30T14:58:37.198Z,98409.37
2018-08-30T15:01:06.426Z,98406.99
2018-08-30T15:03:35.590Z,98410.08
2018-08-30T15:06:04.785Z,98408.15
2018-08-30T15:08:33.963Z,98408.91
2018-08-30T15:11:03.743Z,98405.05
2018-08-30T15:13:32.844Z,98409.50
2018-08-30T15:16:01.982Z,98412.90
2018-08-30T15:18:31.078Z,98417.30
2018-08-30T15:21:00.194Z,98416.30
2018-08-30T15:23:29.470Z,98412.36
2018-08-30T15:25:58.573Z,98413.42
2018-08-30T15:28:27.677Z,98414.44
2018-08-30T15:30:56.837Z,98422.63
2018-08-30T15:33:25.953Z,98425.09
2018-08-30T15:35:55.277Z,98423.89
2018-08-30T15:38:24.454Z,98429.20
2018-08-30T15:40:54.134Z,98425.80
2018-08-30T15:43:23.271Z,98429.06
2018-08-30T15:45:52.413Z,98426.94
2018-08-30T15:48:21.654Z,98426.82
2018-08-30T15:50:50.754Z,98441.80
2018-08-30T15:53:19.998Z,98440.63
2018-08-30T15:55:49.558Z,98434.50
2018-08-30T15:58:18.727Z,98432.30
2018-08-30T16:00:47.871Z,98434.45
2018-08-30T16:03:16.997Z,98431.53
2018-08-30T16:05:46.130Z,98429.71
2018-08-30T16:08:15.626Z,98426.12
2018-08-30T16:10:44.738Z,98423.84
2018-08-30T16:13:13.936Z,98426.72
2018-08-30T16:15:43.007Z,98427.52
2018-08-30T16:18:12.293Z,98422.30
2018-08-30T16:20:41.256Z,98425.16
2018-08-30T16:23:29.623Z,98425.03
2018-08-30T16:25:58.702Z,98425.66
2018-08-30T16:28:28.830Z,98425.64
2018-08-30T16:30:58.336Z,98429.81
2018-08-30T16:33:27.834Z,98435.25
2018-08-30T16:35:56.952Z,98452.08
2018-08-30T16:38:26.179Z,98445.47
2018-08-30T16:40:55.698Z,98446.02
2018-08-30T16:43:24.983Z,98443.81
2018-08-30T16:45:53.941Z,98436.57
2018-08-30T16:48:23.059Z,98445.45
2018-08-30T16:50:52.223Z,98450.20
2018-08-30T16:53:21.413Z,98449.41
2018-08-30T16:55:50.575Z,98453.09
2018-08-30T16:58:19.859Z,98452.31
2018-08-30T17:00:49.076Z,98451.87
2018-08-30T17:03:18.297Z,98457.48
2018-08-30T17:05:48.138Z,98458.53
2018-08-30T17:08:17.247Z,98455.86
2018-08-30T17:10:46.413Z,98454.44
2018-08-30T17:13:15.609Z,98451.89
2018-08-30T17:15:44.770Z,98449.66
2018-08-30T17:18:13.877Z,98451.84
2018-08-30T17:20:46.825Z,98448.41
2018-08-30T17:23:15.574Z,98450.78
2018-08-30T17:25:45.031Z,98455.45
2018-08-30T17:28:14.213Z,98454.84
2018-08-30T17:30:43.781Z,98455.19
2018-08-30T17:33:13.084Z,98464.86
2018-08-30T17:35:42.216Z,98456.65
2018-08-30T17:38:11.516Z,98455.21
2018-08-30T17:40:40.618Z,98452.48
2018-08-30T17:43:09.825Z,98457.00
2018-08-30T17:45:38.878Z,98459.88
2018-08-30T17:48:08.006Z,98453.72
2018-08-30T17:50:37.889Z,98458.73
2018-08-30T17:53:06.917Z,98461.18
2018-08-30T17:55:36.010Z,98466.81
2018-08-30T17:58:05.488Z,98468.30
2018-08-30T18:00:35.061Z,98469.14
2018-08-30T18:03:04.611Z,98462.07
2018-08-30T18:05:33.664Z,98462.70
2018-08-30T18:08:03.626Z,98469.63
2018-08-30T18:10:39.461Z,98468.19
2018-08-30T18:13:08.617Z,98468.91
2018-08-30T18:15:37.781Z,98472.80
2018-08-30T18:18:07.000Z,98480.42
2018-08-30T18:20:36.029Z,98475.52
2018-08-30T18:23:05.260Z,98485.59
2018-08-30T18:25:34.469Z,98483.08
2018-08-30T18:28:04.069Z,98477.55
2018-08-30T18:30:33.195Z,98486.17
2018-08-30T18:33:02.314Z,98483.52
2018-08-30T18:35:31.445Z,98487.41
2018-08-30T18:38:00.545Z,98489.52
2018-08-30T18:40:29.657Z,98487.27
2018-08-30T18:42:58.788Z,98489.12
2018-08-30T18:45:27.951Z,98495.14
2018-08-30T18:47:58.159Z,98497.33
2018-08-30T18:50:27.266Z,98496.39
2018-08-30T18:52:56.595Z,98503.77
2018-08-30T18:55:25.731Z,98505.22
2018-08-30T18:57:54.844Z,98506.38
2018-08-30T19:00:24.813Z,98514.17
2018-08-30T19:02:54.659Z,98511.72
2018-08-30T19:05:23.769Z,98516.64
2018-08-30T19:07:52.941Z,98517.93
2018-08-30T19:10:22.064Z,98512.06
2018-08-30T19:12:51.190Z,98510.33
2018-08-30T19:15:25.664Z,98507.48
2018-08-30T19:18:00.202Z,98508.91
2018-08-30T19:20:29.382Z,98510.38
2018-08-30T19:22:58.470Z,98509.97
2018-08-30T19:25:29.502Z,98507.54
2018-08-30T19:27:58.638Z,98505.34
2018-08-30T19:30:30.050Z,98508.30
2018-08-30T19:33:00.085Z,98506.73
2018-08-30T19:35:34.442Z,98507.38
2018-08-30T19:38:03.626Z,98508.88
2018-08-30T19:40:38.061Z,98506.74
2018-08-30T19:43:07.234Z,98513.05
2018-08-30T19:45:36.329Z,98511.52
2018-08-30T19:48:05.477Z,98512.23
2018-08-30T19:50:34.596Z,98524.89
2018-08-30T19:53:03.715Z,98528.35
2018-08-30T19:55:32.829Z,98519.68
2018-08-30T19:58:02.645Z,98519.75
2018-08-30T20:00:31.819Z,98527.50
2018-08-30T20:03:01.571Z,98526.21
2018-08-30T20:05:30.840Z,98529.40
2018-08-30T20:08:00.319Z,98529.77
2018-08-30T20:10:29.231Z,98532.41
2018-08-30T20:12:58.395Z,98534.48
2018-08-30T20:15:27.558Z,98531.56
2018-08-30T20:17:56.743Z,98531.80
2018-08-30T20:20:25.878Z,98534.41
2018-08-30T20:22:55.073Z,98534.06
2018-08-30T20:25:24.248Z,98528.23
2018-08-30T20:27:53.441Z,98532.53
2018-08-30T20:30:22.554Z,98529.87
2018-08-30T20:32:51.667Z,98531.95
2018-08-30T20:35:20.773Z,98525.66
2018-08-30T20:37:50.661Z,98528.66
2018-08-30T20:40:19.878Z,98533.89
2018-08-30T20:42:48.990Z,98536.86
2018-08-30T20:45:18.537Z,98527.81
2018-08-30T20:47:47.722Z,98527.08
2018-08-30T20:50:16.866Z,98532.56
2018-08-30T20:52:45.982Z,98535.22
2018-08-30T20:55:15.128Z,98532.09
2018-08-30T20:57:44.238Z,98536.61
2018-08-30T21:00:13.411Z,98541.23
2018-08-30T21:02:42.514Z,98537.53
2018-08-30T21:05:13.052Z,98529.03
2018-08-30T21:07:42.189Z,98527.23
2018-08-30T21:10:11.282Z,98523.37
2018-08-30T21:12:40.439Z,98524.94
2018-08-30T21:15:09.631Z,98526.03
2018-08-30T21:17:38.910Z,98518.23
2018-08-30T21:20:08.762Z,98520.88
2018-08-30T21:22:37.945Z,98519.09
2018-08-30T21:25:07.341Z,98522.67
2018-08-30T21:27:36.556Z,98520.95
2018-08-30T21:30:06.494Z,98523.66
2018-08-30T21:32:35.675Z,98519.25
2018-08-30T21:35:04.842Z,98519.25
2018-08-30T21:37:33.990Z,98522.37
2018-08-30T21:40:03.147Z,98520.38
2018-08-30T21:42:32.254Z,98520.38
2018-08-30T21:45:01.425Z,98524.88
2018-08-30T21:47:30.524Z,98522.82
2018-08-30T21:50:00.102Z,98522.95
2018-08-30T21:52:29.421Z,98520.38
2018-08-30T21:54:58.559Z,98517.96
2018-08-30T21:57:27.663Z,98519.67
2018-08-30T21:59:56.854Z,98517.45
2018-08-30T22:02:26.082Z,98523.11
2018-08-30T22:04:55.497Z,98524.09
2018-08-30T22:07:24.798Z,98519.52
2018-08-30T22:09:53.941Z,98523.52
2018-08-30T22:12:23.021Z,98515.94
2018-08-30T22:14:52.119Z,98513.33
2018-08-30T22:17:21.237Z,98512.08
2018-08-30T22:19:50.375Z,98507.87
2018-08-30T22:22:19.485Z,98508.67
2018-08-30T22:24:48.573Z,98504.66
2018-08-30T22:27:17.733Z,98501.03
2018-08-30T22:29:47.545Z,98504.09
2018-08-30T22:32:16.675Z,98503.97
2018-08-30T22:34:45.866Z,98505.95
2018-08-30T22:37:15.614Z,98510.67
2018-08-30T22:39:44.750Z,98506.89
2018-08-30T22:42:13.881Z,98510.16
2018-08-30T22:44:43.403Z,98511.25
2018-08-30T22:47:12.756Z,98504.47
2018-08-30T22:49:41.939Z,98509.68
2018-08-30T22:52:11.085Z,98507.38
2018-08-30T22:54:40.217Z,98506.08
2018-08-30T22:57:09.357Z,98507.31
2018-08-30T22:59:38.505Z,98509.68
2018-08-30T23:02:07.638Z,98505.95
2018-08-30T23:04:37.400Z,98501.89
2018-08-30T23:07:07.328Z,98506.25
2018-08-30T23:09:36.649Z,98508.83
2018-08-30T23:12:06.087Z,98506.30
2018-08-30T23:14:35.218Z,98500.68
2018-08-30T23:17:04.454Z,98503.59
2018-08-30T23:19:33.794Z,98501.97
2018-08-30T23:22:02.916Z,98501.11
2018-08-30T23:24:32.026Z,98494.53
2018-08-30T23:27:01.157Z,98491.53
2018-08-30T23:29:30.278Z,98494.68
2018-08-30T23:31:59.409Z,98496.01
2018-08-30T23:34:28.560Z,98502.74
2018-08-30T23:36:57.766Z,98498.53
2018-08-30T23:39:27.060Z,98493.59
2018-08-30T23:41:56.257Z,98490.17
2018-08-30T23:44:26.170Z,98493.59
2018-08-30T23:46:55.289Z,98493.25
2018-08-30T23:49:24.422Z,98492.39
2018-08-30T23:51:54.338Z,98494.73
2018-08-30T23:54:23.466Z,98489.59
2018-08-30T23:56:52.705Z,98490.67
2018-08-30T23:59:39.534Z,98488.66
